sensor_id;sensor_type;location;lat;lon;timestamp;P1;durP1;ratioP1;P2;durP2;ratioP2
15958;SDS011;8078;47.822;9.402;2022-12-18T00:01:42;113.23;;;21.07;;
15958;SDS011;8078;47.822;9.402;2022-12-18T00:04:11;103.73;;;23.10;;
15958;SDS011;8078;47.822;9.402;2022-12-18T00:06:44;83.13;;;18.40;;
15958;SDS011;8078;47.822;9.402;2022-12-18T00:09:10;112.17;;;21.87;;
15958;SDS011;8078;47.822;9.402;2022-12-18T00:11:36;102.07;;;22.80;;
15958;SDS011;8078;47.822;9.402;2022-12-18T00:14:01;189.60;;;24.13;;
15958;SDS011;8078;47.822;9.402;2022-12-18T00:16:27;188.47;;;21.67;;
15958;SDS011;8078;47.822;9.402;2022-12-18T00:18:56;119.47;;;22.53;;
15958;SDS011;8078;47.822;9.402;2022-12-18T00:21:23;121.77;;;22.30;;
15958;SDS011;8078;47.822;9.402;2022-12-18T00:23:49;148.20;;;23.60;;
15958;SDS011;8078;47.822;9.402;2022-12-18T00:26:22;100.77;;;20.53;;
15958;SDS011;8078;47.822;9.402;2022-12-18T00:28:50;151.47;;;24.70;;
15958;SDS011;8078;47.822;9.402;2022-12-18T00:31:18;101.30;;;20.77;;
15958;SDS011;8078;47.822;9.402;2022-12-18T00:33:45;139.03;;;22.87;;
15958;SDS011;8078;47.822;9.402;2022-12-18T00:36:12;70.30;;;20.13;;
15958;SDS011;8078;47.822;9.402;2022-12-18T00:38:40;65.97;;;20.63;;
15958;SDS011;8078;47.822;9.402;2022-12-18T00:41:06;82.23;;;22.17;;
15958;SDS011;8078;47.822;9.402;2022-12-18T00:43:33;65.40;;;20.37;;
15958;SDS011;8078;47.822;9.402;2022-12-18T00:45:59;83.10;;;20.03;;
15958;SDS011;8078;47.822;9.402;2022-12-18T00:48:25;87.87;;;18.33;;
15958;SDS011;8078;47.822;9.402;2022-12-18T00:50:50;104.33;;;20.63;;
15958;SDS011;8078;47.822;9.402;2022-12-18T00:53:17;105.50;;;21.53;;
15958;SDS011;8078;47.822;9.402;2022-12-18T00:55:43;52.13;;;18.23;;
15958;SDS011;8078;47.822;9.402;2022-12-18T00:58:09;64.50;;;20.97;;
15958;SDS011;8078;47.822;9.402;2022-12-18T01:00:36;73.67;;;18.70;;
15958;SDS011;8078;47.822;9.402;2022-12-18T01:03:03;72.50;;;19.13;;
15958;SDS011;8078;47.822;9.402;2022-12-18T01:05:29;146.27;;;22.27;;
15958;SDS011;8078;47.822;9.402;2022-12-18T01:07:55;87.27;;;19.43;;
15958;SDS011;8078;47.822;9.402;2022-12-18T01:10:21;84.13;;;20.30;;
15958;SDS011;8078;47.822;9.402;2022-12-18T01:12:47;71.57;;;20.97;;
15958;SDS011;8078;47.822;9.402;2022-12-18T01:15:13;108.97;;;22.07;;
15958;SDS011;8078;47.822;9.402;2022-12-18T01:17:40;127.60;;;22.37;;
15958;SDS011;8078;47.822;9.402;2022-12-18T01:20:05;155.50;;;22.50;;
15958;SDS011;8078;47.822;9.402;2022-12-18T01:22:31;126.77;;;22.00;;
15958;SDS011;8078;47.822;9.402;2022-12-18T01:24:57;157.33;;;21.70;;
15958;SDS011;8078;47.822;9.402;2022-12-18T01:27:23;178.80;;;22.80;;
15958;SDS011;8078;47.822;9.402;2022-12-18T01:29:49;59.97;;;20.77;;
15958;SDS011;8078;47.822;9.402;2022-12-18T01:32:14;53.83;;;19.20;;
15958;SDS011;8078;47.822;9.402;2022-12-18T01:34:40;49.53;;;19.47;;
15958;SDS011;8078;47.822;9.402;2022-12-18T01:37:06;99.70;;;22.43;;
15958;SDS011;8078;47.822;9.402;2022-12-18T01:39:31;102.83;;;22.27;;
15958;SDS011;8078;47.822;9.402;2022-12-18T01:41:58;101.27;;;19.97;;
15958;SDS011;8078;47.822;9.402;2022-12-18T01:47:35;74.77;;;20.77;;
15958;SDS011;8078;47.822;9.402;2022-12-18T01:50:05;75.83;;;18.17;;
15958;SDS011;8078;47.822;9.402;2022-12-18T01:52:41;80.73;;;19.53;;
15958;SDS011;8078;47.822;9.402;2022-12-18T01:55:10;51.57;;;18.47;;
15958;SDS011;8078;47.822;9.402;2022-12-18T01:57:37;58.53;;;19.73;;
15958;SDS011;8078;47.822;9.402;2022-12-18T02:00:05;120.27;;;22.83;;
15958;SDS011;8078;47.822;9.402;2022-12-18T02:02:34;56.60;;;17.37;;
15958;SDS011;8078;47.822;9.402;2022-12-18T02:05:00;112.53;;;20.73;;
15958;SDS011;8078;47.822;9.402;2022-12-18T02:07:34;62.70;;;19.67;;
15958;SDS011;8078;47.822;9.402;2022-12-18T02:13:09;68.77;;;18.93;;
15958;SDS011;8078;47.822;9.402;2022-12-18T02:15:58;140.77;;;22.07;;
15958;SDS011;8078;47.822;9.402;2022-12-18T02:18:32;76.37;;;18.80;;
15958;SDS011;8078;47.822;9.402;2022-12-18T02:21:12;118.80;;;21.23;;
15958;SDS011;8078;47.822;9.402;2022-12-18T02:26:51;138.60;;;20.87;;
15958;SDS011;8078;47.822;9.402;2022-12-18T02:31:59;96.93;;;20.03;;
15958;SDS011;8078;47.822;9.402;2022-12-18T02:34:28;87.37;;;19.50;;
15958;SDS011;8078;47.822;9.402;2022-12-18T02:36:57;70.37;;;18.43;;
15958;SDS011;8078;47.822;9.402;2022-12-18T02:39:25;52.90;;;17.90;;
15958;SDS011;8078;47.822;9.402;2022-12-18T02:41:52;53.10;;;18.07;;
15958;SDS011;8078;47.822;9.402;2022-12-18T02:44:18;106.40;;;20.43;;
15958;SDS011;8078;47.822;9.402;2022-12-18T02:46:49;173.20;;;21.33;;
15958;SDS011;8078;47.822;9.402;2022-12-18T02:49:22;88.47;;;20.13;;
15958;SDS011;8078;47.822;9.402;2022-12-18T02:52:13;68.57;;;17.93;;
15958;SDS011;8078;47.822;9.402;2022-12-18T02:55:14;56.77;;;17.23;;
15958;SDS011;8078;47.822;9.402;2022-12-18T02:57:54;212.87;;;24.73;;
15958;SDS011;8078;47.822;9.402;2022-12-18T03:00:46;191.23;;;26.10;;
15958;SDS011;8078;47.822;9.402;2022-12-18T03:03:19;59.07;;;18.37;;
15958;SDS011;8078;47.822;9.402;2022-12-18T03:05:52;56.10;;;18.13;;
15958;SDS011;8078;47.822;9.402;2022-12-18T03:08:24;73.33;;;19.20;;
15958;SDS011;8078;47.822;9.402;2022-12-18T03:10:58;128.83;;;18.53;;
15958;SDS011;8078;47.822;9.402;2022-12-18T03:13:32;150.83;;;20.30;;
15958;SDS011;8078;47.822;9.402;2022-12-18T03:16:00;193.27;;;23.13;;
15958;SDS011;8078;47.822;9.402;2022-12-18T03:18:30;62.03;;;19.53;;
15958;SDS011;8078;47.822;9.402;2022-12-18T03:21:04;51.10;;;18.03;;
15958;SDS011;8078;47.822;9.402;2022-12-18T03:23:34;103.90;;;19.73;;
15958;SDS011;8078;47.822;9.402;2022-12-18T03:26:05;124.10;;;22.57;;
15958;SDS011;8078;47.822;9.402;2022-12-18T03:28:35;116.03;;;21.60;;
15958;SDS011;8078;47.822;9.402;2022-12-18T03:31:04;49.97;;;19.13;;
15958;SDS011;8078;47.822;9.402;2022-12-18T03:36:04;54.73;;;17.30;;
15958;SDS011;8078;47.822;9.402;2022-12-18T03:38:30;214.00;;;25.83;;
15958;SDS011;8078;47.822;9.402;2022-12-18T03:46:55;68.57;;;18.70;;
15958;SDS011;8078;47.822;9.402;2022-12-18T03:49:35;48.67;;;17.33;;
15958;SDS011;8078;47.822;9.402;2022-12-18T03:52:29;52.73;;;18.57;;
15958;SDS011;8078;47.822;9.402;2022-12-18T03:54:58;66.20;;;18.47;;
15958;SDS011;8078;47.822;9.402;2022-12-18T03:57:26;75.30;;;20.20;;
15958;SDS011;8078;47.822;9.402;2022-12-18T03:59:56;45.07;;;18.50;;
15958;SDS011;8078;47.822;9.402;2022-12-18T04:02:25;80.27;;;19.37;;
15958;SDS011;8078;47.822;9.402;2022-12-18T04:04:55;51.33;;;18.13;;
15958;SDS011;8078;47.822;9.402;2022-12-18T04:07:24;70.37;;;18.93;;
15958;SDS011;8078;47.822;9.402;2022-12-18T04:09:50;51.73;;;18.40;;
15958;SDS011;8078;47.822;9.402;2022-12-18T04:12:23;51.50;;;19.37;;
15958;SDS011;8078;47.822;9.402;2022-12-18T04:14:51;47.77;;;18.93;;
15958;SDS011;8078;47.822;9.402;2022-12-18T04:17:16;52.67;;;19.47;;
15958;SDS011;8078;47.822;9.402;2022-12-18T04:19:42;76.53;;;20.43;;
15958;SDS011;8078;47.822;9.402;2022-12-18T04:22:09;49.53;;;18.03;;
15958;SDS011;8078;47.822;9.402;2022-12-18T04:24:35;59.63;;;20.30;;
15958;SDS011;8078;47.822;9.402;2022-12-18T04:27:01;61.77;;;20.20;;
15958;SDS011;8078;47.822;9.402;2022-12-18T04:29:26;52.20;;;18.67;;
15958;SDS011;8078;47.822;9.402;2022-12-18T04:31:52;60.93;;;18.93;;
15958;SDS011;8078;47.822;9.402;2022-12-18T04:34:17;52.03;;;18.63;;
15958;SDS011;8078;47.822;9.402;2022-12-18T04:36:43;222.97;;;23.40;;
15958;SDS011;8078;47.822;9.402;2022-12-18T04:39:09;70.43;;;19.90;;
15958;SDS011;8078;47.822;9.402;2022-12-18T04:41:34;38.43;;;16.63;;
15958;SDS011;8078;47.822;9.402;2022-12-18T04:44:00;44.90;;;18.70;;
15958;SDS011;8078;47.822;9.402;2022-12-18T04:46:25;48.10;;;18.53;;
15958;SDS011;8078;47.822;9.402;2022-12-18T04:48:51;147.40;;;22.53;;
15958;SDS011;8078;47.822;9.402;2022-12-18T04:51:16;59.83;;;20.70;;
15958;SDS011;8078;47.822;9.402;2022-12-18T04:53:42;49.97;;;20.27;;
15958;SDS011;8078;47.822;9.402;2022-12-18T04:56:09;52.90;;;19.77;;
15958;SDS011;8078;47.822;9.402;2022-12-18T04:58:37;49.63;;;18.63;;
15958;SDS011;8078;47.822;9.402;2022-12-18T05:01:04;51.30;;;20.90;;
15958;SDS011;8078;47.822;9.402;2022-12-18T05:03:29;49.40;;;19.60;;
15958;SDS011;8078;47.822;9.402;2022-12-18T05:05:55;50.60;;;19.03;;
15958;SDS011;8078;47.822;9.402;2022-12-18T05:08:21;49.10;;;19.60;;
15958;SDS011;8078;47.822;9.402;2022-12-18T05:10:48;53.23;;;18.87;;
15958;SDS011;8078;47.822;9.402;2022-12-18T05:13:13;52.43;;;19.70;;
15958;SDS011;8078;47.822;9.402;2022-12-18T05:15:39;48.23;;;19.33;;
15958;SDS011;8078;47.822;9.402;2022-12-18T05:18:04;48.20;;;19.13;;
15958;SDS011;8078;47.822;9.402;2022-12-18T05:20:30;81.57;;;18.37;;
15958;SDS011;8078;47.822;9.402;2022-12-18T05:22:56;103.13;;;20.97;;
15958;SDS011;8078;47.822;9.402;2022-12-18T05:25:22;85.13;;;20.53;;
15958;SDS011;8078;47.822;9.402;2022-12-18T05:27:47;104.77;;;18.53;;
15958;SDS011;8078;47.822;9.402;2022-12-18T05:30:13;48.10;;;14.97;;
15958;SDS011;8078;47.822;9.402;2022-12-18T05:32:40;95.80;;;20.07;;
15958;SDS011;8078;47.822;9.402;2022-12-18T05:35:06;82.00;;;17.37;;
15958;SDS011;8078;47.822;9.402;2022-12-18T05:37:34;212.57;;;21.33;;
15958;SDS011;8078;47.822;9.402;2022-12-18T05:40:00;415.10;;;28.70;;
15958;SDS011;8078;47.822;9.402;2022-12-18T05:42:25;153.20;;;20.37;;
15958;SDS011;8078;47.822;9.402;2022-12-18T05:44:51;52.40;;;15.33;;
15958;SDS011;8078;47.822;9.402;2022-12-18T05:47:16;253.40;;;22.03;;
15958;SDS011;8078;47.822;9.402;2022-12-18T05:49:42;47.07;;;16.90;;
15958;SDS011;8078;47.822;9.402;2022-12-18T05:52:08;43.17;;;15.40;;
15958;SDS011;8078;47.822;9.402;2022-12-18T05:54:34;40.63;;;15.33;;
15958;SDS011;8078;47.822;9.402;2022-12-18T05:56:59;46.80;;;16.07;;
15958;SDS011;8078;47.822;9.402;2022-12-18T05:59:25;41.10;;;15.53;;
15958;SDS011;8078;47.822;9.402;2022-12-18T06:01:51;27.83;;;14.20;;
15958;SDS011;8078;47.822;9.402;2022-12-18T06:04:16;62.73;;;16.27;;
15958;SDS011;8078;47.822;9.402;2022-12-18T06:06:42;45.27;;;16.93;;
15958;SDS011;8078;47.822;9.402;2022-12-18T06:09:07;59.77;;;17.67;;
15958;SDS011;8078;47.822;9.402;2022-12-18T06:11:35;42.07;;;15.37;;
15958;SDS011;8078;47.822;9.402;2022-12-18T06:14:02;322.03;;;25.60;;
15958;SDS011;8078;47.822;9.402;2022-12-18T06:16:29;81.70;;;16.50;;
15958;SDS011;8078;47.822;9.402;2022-12-18T06:18:58;60.23;;;17.03;;
15958;SDS011;8078;47.822;9.402;2022-12-18T06:21:24;94.53;;;15.13;;
15958;SDS011;8078;47.822;9.402;2022-12-18T06:23:50;69.77;;;15.17;;
15958;SDS011;8078;47.822;9.402;2022-12-18T06:26:16;112.13;;;18.87;;
15958;SDS011;8078;47.822;9.402;2022-12-18T06:28:41;105.77;;;18.43;;
15958;SDS011;8078;47.822;9.402;2022-12-18T06:31:07;44.37;;;15.67;;
15958;SDS011;8078;47.822;9.402;2022-12-18T06:33:33;54.20;;;16.77;;
15958;SDS011;8078;47.822;9.402;2022-12-18T06:36:01;35.73;;;15.17;;
15958;SDS011;8078;47.822;9.402;2022-12-18T06:38:31;206.67;;;20.20;;
15958;SDS011;8078;47.822;9.402;2022-12-18T06:40:57;226.17;;;22.93;;
15958;SDS011;8078;47.822;9.402;2022-12-18T06:43:23;153.10;;;20.70;;
15958;SDS011;8078;47.822;9.402;2022-12-18T06:45:49;339.10;;;27.50;;
15958;SDS011;8078;47.822;9.402;2022-12-18T06:48:18;185.47;;;17.43;;
15958;SDS011;8078;47.822;9.402;2022-12-18T06:50:46;232.17;;;20.37;;
15958;SDS011;8078;47.822;9.402;2022-12-18T06:53:12;307.67;;;24.30;;
15958;SDS011;8078;47.822;9.402;2022-12-18T06:55:38;95.67;;;17.00;;
15958;SDS011;8078;47.822;9.402;2022-12-18T06:58:03;32.60;;;13.30;;
15958;SDS011;8078;47.822;9.402;2022-12-18T07:00:29;56.50;;;16.30;;
15958;SDS011;8078;47.822;9.402;2022-12-18T07:02:54;41.47;;;15.57;;
15958;SDS011;8078;47.822;9.402;2022-12-18T07:05:20;158.47;;;21.33;;
15958;SDS011;8078;47.822;9.402;2022-12-18T07:07:46;116.40;;;18.80;;
15958;SDS011;8078;47.822;9.402;2022-12-18T07:10:11;236.57;;;20.30;;
15958;SDS011;8078;47.822;9.402;2022-12-18T07:12:37;141.57;;;18.23;;
15958;SDS011;8078;47.822;9.402;2022-12-18T07:15:02;505.90;;;38.20;;
15958;SDS011;8078;47.822;9.402;2022-12-18T07:17:28;322.87;;;22.30;;
15958;SDS011;8078;47.822;9.402;2022-12-18T07:19:54;91.40;;;13.83;;
15958;SDS011;8078;47.822;9.402;2022-12-18T07:22:20;71.77;;;15.17;;
15958;SDS011;8078;47.822;9.402;2022-12-18T07:24:45;43.30;;;14.43;;
15958;SDS011;8078;47.822;9.402;2022-12-18T07:27:11;127.87;;;18.87;;
15958;SDS011;8078;47.822;9.402;2022-12-18T07:29:36;128.20;;;17.13;;
15958;SDS011;8078;47.822;9.402;2022-12-18T07:32:02;235.70;;;22.00;;
15958;SDS011;8078;47.822;9.402;2022-12-18T07:34:27;179.97;;;20.17;;
15958;SDS011;8078;47.822;9.402;2022-12-18T07:36:53;162.70;;;17.43;;
15958;SDS011;8078;47.822;9.402;2022-12-18T07:39:18;146.70;;;17.77;;
15958;SDS011;8078;47.822;9.402;2022-12-18T07:41:44;152.27;;;17.00;;
15958;SDS011;8078;47.822;9.402;2022-12-18T07:44:29;36.97;;;12.67;;
15958;SDS011;8078;47.822;9.402;2022-12-18T07:46:55;138.57;;;14.80;;
15958;SDS011;8078;47.822;9.402;2022-12-18T07:49:20;197.43;;;21.43;;
15958;SDS011;8078;47.822;9.402;2022-12-18T07:51:46;62.33;;;15.73;;
15958;SDS011;8078;47.822;9.402;2022-12-18T07:54:14;335.77;;;27.50;;
15958;SDS011;8078;47.822;9.402;2022-12-18T07:56:39;198.50;;;20.27;;
15958;SDS011;8078;47.822;9.402;2022-12-18T07:59:05;76.30;;;14.93;;
15958;SDS011;8078;47.822;9.402;2022-12-18T08:01:31;456.73;;;35.23;;
15958;SDS011;8078;47.822;9.402;2022-12-18T08:03:57;296.87;;;27.43;;
15958;SDS011;8078;47.822;9.402;2022-12-18T08:06:22;204.00;;;22.17;;
15958;SDS011;8078;47.822;9.402;2022-12-18T08:08:48;279.70;;;26.70;;
15958;SDS011;8078;47.822;9.402;2022-12-18T08:11:13;291.07;;;22.97;;
15958;SDS011;8078;47.822;9.402;2022-12-18T08:13:39;58.23;;;18.00;;
15958;SDS011;8078;47.822;9.402;2022-12-18T08:16:05;43.67;;;15.23;;
15958;SDS011;8078;47.822;9.402;2022-12-18T08:18:32;325.33;;;30.40;;
15958;SDS011;8078;47.822;9.402;2022-12-18T08:21:07;214.10;;;23.17;;
15958;SDS011;8078;47.822;9.402;2022-12-18T08:23:53;179.50;;;23.10;;
15958;SDS011;8078;47.822;9.402;2022-12-18T08:26:20;321.30;;;27.33;;
15958;SDS011;8078;47.822;9.402;2022-12-18T08:28:47;377.30;;;32.77;;
15958;SDS011;8078;47.822;9.402;2022-12-18T08:31:14;400.23;;;29.90;;
15958;SDS011;8078;47.822;9.402;2022-12-18T08:33:40;475.93;;;38.10;;
15958;SDS011;8078;47.822;9.402;2022-12-18T08:36:06;404.30;;;31.03;;
15958;SDS011;8078;47.822;9.402;2022-12-18T08:38:33;398.07;;;34.43;;
15958;SDS011;8078;47.822;9.402;2022-12-18T08:40:59;108.70;;;18.07;;
15958;SDS011;8078;47.822;9.402;2022-12-18T08:43:29;107.03;;;18.77;;
15958;SDS011;8078;47.822;9.402;2022-12-18T08:46:14;78.40;;;18.10;;
15958;SDS011;8078;47.822;9.402;2022-12-18T08:48:39;107.07;;;20.37;;
15958;SDS011;8078;47.822;9.402;2022-12-18T08:51:05;538.87;;;41.23;;
15958;SDS011;8078;47.822;9.402;2022-12-18T08:53:31;413.27;;;32.53;;
15958;SDS011;8078;47.822;9.402;2022-12-18T08:55:56;102.93;;;17.20;;
15958;SDS011;8078;47.822;9.402;2022-12-18T08:58:22;274.13;;;26.33;;
15958;SDS011;8078;47.822;9.402;2022-12-18T09:00:48;157.77;;;19.33;;
15958;SDS011;8078;47.822;9.402;2022-12-18T09:03:14;559.27;;;40.83;;
15958;SDS011;8078;47.822;9.402;2022-12-18T09:05:41;419.17;;;35.60;;
15958;SDS011;8078;47.822;9.402;2022-12-18T09:08:07;357.70;;;29.70;;
15958;SDS011;8078;47.822;9.402;2022-12-18T09:10:33;512.23;;;38.40;;
15958;SDS011;8078;47.822;9.402;2022-12-18T09:12:59;79.50;;;18.07;;
15958;SDS011;8078;47.822;9.402;2022-12-18T09:15:24;53.53;;;18.63;;
15958;SDS011;8078;47.822;9.402;2022-12-18T09:17:51;290.90;;;27.67;;
15958;SDS011;8078;47.822;9.402;2022-12-18T09:20:17;228.83;;;24.33;;
15958;SDS011;8078;47.822;9.402;2022-12-18T09:22:43;390.53;;;31.33;;
15958;SDS011;8078;47.822;9.402;2022-12-18T09:25:09;182.70;;;21.33;;
15958;SDS011;8078;47.822;9.402;2022-12-18T09:27:35;94.70;;;17.30;;
15958;SDS011;8078;47.822;9.402;2022-12-18T09:30:00;65.30;;;17.07;;
15958;SDS011;8078;47.822;9.402;2022-12-18T09:32:26;84.20;;;18.77;;
15958;SDS011;8078;47.822;9.402;2022-12-18T09:34:52;252.70;;;24.00;;
15958;SDS011;8078;47.822;9.402;2022-12-18T09:37:17;128.73;;;18.43;;
15958;SDS011;8078;47.822;9.402;2022-12-18T09:39:43;45.67;;;17.40;;
15958;SDS011;8078;47.822;9.402;2022-12-18T09:42:12;242.83;;;22.00;;
15958;SDS011;8078;47.822;9.402;2022-12-18T09:44:50;49.43;;;16.83;;
15958;SDS011;8078;47.822;9.402;2022-12-18T09:47:34;92.57;;;18.30;;
15958;SDS011;8078;47.822;9.402;2022-12-18T09:50:05;46.97;;;18.10;;
15958;SDS011;8078;47.822;9.402;2022-12-18T09:52:48;56.13;;;18.47;;
15958;SDS011;8078;47.822;9.402;2022-12-18T09:57:47;164.07;;;20.93;;
15958;SDS011;8078;47.822;9.402;2022-12-18T10:00:17;113.23;;;19.60;;
15958;SDS011;8078;47.822;9.402;2022-12-18T10:02:45;147.60;;;20.20;;
15958;SDS011;8078;47.822;9.402;2022-12-18T10:05:12;175.17;;;22.40;;
15958;SDS011;8078;47.822;9.402;2022-12-18T10:07:50;246.13;;;23.43;;
15958;SDS011;8078;47.822;9.402;2022-12-18T10:15:54;162.37;;;22.33;;
15958;SDS011;8078;47.822;9.402;2022-12-18T10:18:58;120.87;;;17.83;;
15958;SDS011;8078;47.822;9.402;2022-12-18T10:21:43;44.30;;;17.67;;
15958;SDS011;8078;47.822;9.402;2022-12-18T10:24:33;86.43;;;16.10;;
15958;SDS011;8078;47.822;9.402;2022-12-18T10:27:09;208.03;;;23.90;;
15958;SDS011;8078;47.822;9.402;2022-12-18T10:29:43;218.97;;;24.70;;
15958;SDS011;8078;47.822;9.402;2022-12-18T10:32:18;187.10;;;22.63;;
15958;SDS011;8078;47.822;9.402;2022-12-18T10:34:46;48.07;;;15.73;;
15958;SDS011;8078;47.822;9.402;2022-12-18T10:37:18;121.70;;;19.23;;
15958;SDS011;8078;47.822;9.402;2022-12-18T10:39:46;96.97;;;19.53;;
15958;SDS011;8078;47.822;9.402;2022-12-18T10:42:33;212.27;;;20.57;;
15958;SDS011;8078;47.822;9.402;2022-12-18T10:45:08;73.17;;;17.37;;
15958;SDS011;8078;47.822;9.402;2022-12-18T10:47:46;116.03;;;17.63;;
15958;SDS011;8078;47.822;9.402;2022-12-18T10:52:59;44.60;;;17.03;;
15958;SDS011;8078;47.822;9.402;2022-12-18T10:55:31;123.13;;;19.90;;
15958;SDS011;8078;47.822;9.402;2022-12-18T11:03:47;74.47;;;16.77;;
15958;SDS011;8078;47.822;9.402;2022-12-18T11:06:25;44.33;;;16.13;;
15958;SDS011;8078;47.822;9.402;2022-12-18T11:08:58;131.30;;;21.10;;
15958;SDS011;8078;47.822;9.402;2022-12-18T11:11:25;173.27;;;22.80;;
15958;SDS011;8078;47.822;9.402;2022-12-18T11:16:30;222.43;;;24.87;;
15958;SDS011;8078;47.822;9.402;2022-12-18T11:21:49;50.37;;;18.63;;
15958;SDS011;8078;47.822;9.402;2022-12-18T11:24:19;66.53;;;18.70;;
15958;SDS011;8078;47.822;9.402;2022-12-18T11:27:06;132.47;;;19.80;;
15958;SDS011;8078;47.822;9.402;2022-12-18T11:29:43;97.00;;;18.53;;
15958;SDS011;8078;47.822;9.402;2022-12-18T11:34:44;196.73;;;20.43;;
15958;SDS011;8078;47.822;9.402;2022-12-18T11:37:13;161.43;;;19.17;;
15958;SDS011;8078;47.822;9.402;2022-12-18T11:39:52;55.60;;;16.97;;
15958;SDS011;8078;47.822;9.402;2022-12-18T11:42:30;77.23;;;20.37;;
15958;SDS011;8078;47.822;9.402;2022-12-18T11:45:29;75.00;;;18.03;;
15958;SDS011;8078;47.822;9.402;2022-12-18T11:48:16;59.33;;;15.87;;
15958;SDS011;8078;47.822;9.402;2022-12-18T11:50:53;57.63;;;17.73;;
15958;SDS011;8078;47.822;9.402;2022-12-18T11:53:24;177.87;;;21.33;;
15958;SDS011;8078;47.822;9.402;2022-12-18T11:56:02;63.70;;;18.37;;
15958;SDS011;8078;47.822;9.402;2022-12-18T11:58:47;49.17;;;17.37;;
15958;SDS011;8078;47.822;9.402;2022-12-18T12:07:24;115.53;;;17.97;;
15958;SDS011;8078;47.822;9.402;2022-12-18T12:15:41;189.00;;;24.17;;
15958;SDS011;8078;47.822;9.402;2022-12-18T12:21:04;48.50;;;18.67;;
15958;SDS011;8078;47.822;9.402;2022-12-18T12:23:59;268.07;;;28.23;;
15958;SDS011;8078;47.822;9.402;2022-12-18T12:26:57;66.63;;;18.90;;
15958;SDS011;8078;47.822;9.402;2022-12-18T12:29:30;148.47;;;21.27;;
15958;SDS011;8078;47.822;9.402;2022-12-18T12:40:46;197.97;;;24.33;;
15958;SDS011;8078;47.822;9.402;2022-12-18T12:43:27;166.00;;;21.47;;
15958;SDS011;8078;47.822;9.402;2022-12-18T12:46:13;494.17;;;37.57;;
15958;SDS011;8078;47.822;9.402;2022-12-18T12:48:43;213.87;;;25.17;;
15958;SDS011;8078;47.822;9.402;2022-12-18T12:51:17;205.83;;;24.13;;
15958;SDS011;8078;47.822;9.402;2022-12-18T12:53:49;86.77;;;19.83;;
15958;SDS011;8078;47.822;9.402;2022-12-18T12:56:15;450.20;;;36.93;;
15958;SDS011;8078;47.822;9.402;2022-12-18T13:03:54;101.90;;;20.57;;
15958;SDS011;8078;47.822;9.402;2022-12-18T13:08:54;545.63;;;40.20;;
15958;SDS011;8078;47.822;9.402;2022-12-18T13:11:29;553.17;;;41.43;;
15958;SDS011;8078;47.822;9.402;2022-12-18T13:14:32;381.60;;;32.57;;
15958;SDS011;8078;47.822;9.402;2022-12-18T13:19:47;511.30;;;38.33;;
15958;SDS011;8078;47.822;9.402;2022-12-18T13:22:31;522.17;;;37.77;;
15958;SDS011;8078;47.822;9.402;2022-12-18T13:28:16;311.37;;;29.20;;
15958;SDS011;8078;47.822;9.402;2022-12-18T13:30:46;354.10;;;30.47;;
15958;SDS011;8078;47.822;9.402;2022-12-18T13:38:20;363.30;;;28.83;;
15958;SDS011;8078;47.822;9.402;2022-12-18T13:51:28;280.27;;;26.50;;
15958;SDS011;8078;47.822;9.402;2022-12-18T13:53:56;368.93;;;29.43;;
15958;SDS011;8078;47.822;9.402;2022-12-18T13:56:26;327.30;;;28.07;;
15958;SDS011;8078;47.822;9.402;2022-12-18T14:04:47;388.80;;;34.00;;
15958;SDS011;8078;47.822;9.402;2022-12-18T14:07:27;531.07;;;40.33;;
15958;SDS011;8078;47.822;9.402;2022-12-18T14:09:58;643.70;;;47.63;;
15958;SDS011;8078;47.822;9.402;2022-12-18T14:12:29;374.07;;;33.57;;
15958;SDS011;8078;47.822;9.402;2022-12-18T14:15:31;450.70;;;35.87;;
15958;SDS011;8078;47.822;9.402;2022-12-18T14:18:00;559.10;;;43.97;;
15958;SDS011;8078;47.822;9.402;2022-12-18T14:20:29;669.23;;;49.40;;
15958;SDS011;8078;47.822;9.402;2022-12-18T14:22:57;700.30;;;50.87;;
15958;SDS011;8078;47.822;9.402;2022-12-18T14:25:24;627.30;;;46.27;;
15958;SDS011;8078;47.822;9.402;2022-12-18T14:30:35;667.03;;;46.77;;
15958;SDS011;8078;47.822;9.402;2022-12-18T14:33:03;723.20;;;53.90;;
15958;SDS011;8078;47.822;9.402;2022-12-18T14:35:32;349.60;;;34.77;;
15958;SDS011;8078;47.822;9.402;2022-12-18T14:38:21;590.90;;;46.07;;
15958;SDS011;8078;47.822;9.402;2022-12-18T14:40:56;366.40;;;32.07;;
15958;SDS011;8078;47.822;9.402;2022-12-18T14:43:27;512.20;;;42.03;;
15958;SDS011;8078;47.822;9.402;2022-12-18T14:45:55;627.13;;;46.83;;
15958;SDS011;8078;47.822;9.402;2022-12-18T14:48:31;790.00;;;56.50;;
15958;SDS011;8078;47.822;9.402;2022-12-18T14:51:01;1043.80;;;72.13;;
15958;SDS011;8078;47.822;9.402;2022-12-18T14:53:33;708.53;;;52.33;;
15958;SDS011;8078;47.822;9.402;2022-12-18T14:56:20;863.30;;;62.57;;
15958;SDS011;8078;47.822;9.402;2022-12-18T14:58:54;767.07;;;58.43;;
15958;SDS011;8078;47.822;9.402;2022-12-18T15:01:37;514.37;;;41.97;;
15958;SDS011;8078;47.822;9.402;2022-12-18T15:09:36;744.37;;;52.33;;
15958;SDS011;8078;47.822;9.402;2022-12-18T15:12:02;812.97;;;56.27;;
15958;SDS011;8078;47.822;9.402;2022-12-18T15:17:16;503.73;;;40.13;;
15958;SDS011;8078;47.822;9.402;2022-12-18T15:19:44;677.97;;;50.93;;
15958;SDS011;8078;47.822;9.402;2022-12-18T15:24:59;768.87;;;49.77;;
15958;SDS011;8078;47.822;9.402;2022-12-18T15:27:30;768.60;;;53.67;;
15958;SDS011;8078;47.822;9.402;2022-12-18T15:32:35;636.77;;;48.07;;
15958;SDS011;8078;47.822;9.402;2022-12-18T15:37:41;579.03;;;41.43;;
15958;SDS011;8078;47.822;9.402;2022-12-18T15:40:08;613.63;;;45.57;;
15958;SDS011;8078;47.822;9.402;2022-12-18T15:42:41;640.03;;;47.20;;
15958;SDS011;8078;47.822;9.402;2022-12-18T15:45:26;689.03;;;46.33;;
15958;SDS011;8078;47.822;9.402;2022-12-18T15:47:52;752.50;;;51.77;;
15958;SDS011;8078;47.822;9.402;2022-12-18T15:50:18;657.27;;;46.20;;
15958;SDS011;8078;47.822;9.402;2022-12-18T15:52:44;547.70;;;41.70;;
15958;SDS011;8078;47.822;9.402;2022-12-18T15:55:15;227.27;;;22.47;;
15958;SDS011;8078;47.822;9.402;2022-12-18T15:58:02;252.90;;;26.63;;
15958;SDS011;8078;47.822;9.402;2022-12-18T16:00:28;569.90;;;37.90;;
15958;SDS011;8078;47.822;9.402;2022-12-18T16:02:53;580.57;;;38.27;;
15958;SDS011;8078;47.822;9.402;2022-12-18T16:05:19;134.77;;;18.47;;
15958;SDS011;8078;47.822;9.402;2022-12-18T16:07:46;625.03;;;43.03;;
15958;SDS011;8078;47.822;9.402;2022-12-18T16:10:12;205.57;;;23.93;;
15958;SDS011;8078;47.822;9.402;2022-12-18T16:12:38;119.57;;;18.83;;
15958;SDS011;8078;47.822;9.402;2022-12-18T16:15:04;326.30;;;28.43;;
15958;SDS011;8078;47.822;9.402;2022-12-18T16:17:30;136.80;;;20.30;;
15958;SDS011;8078;47.822;9.402;2022-12-18T16:19:56;467.27;;;33.33;;
15958;SDS011;8078;47.822;9.402;2022-12-18T16:22:27;513.87;;;35.90;;
15958;SDS011;8078;47.822;9.402;2022-12-18T16:24:54;317.27;;;26.27;;
15958;SDS011;8078;47.822;9.402;2022-12-18T16:27:23;48.33;;;16.57;;
15958;SDS011;8078;47.822;9.402;2022-12-18T16:29:49;426.83;;;31.80;;
15958;SDS011;8078;47.822;9.402;2022-12-18T16:32:16;406.73;;;31.33;;
15958;SDS011;8078;47.822;9.402;2022-12-18T16:34:43;260.93;;;26.77;;
15958;SDS011;8078;47.822;9.402;2022-12-18T16:37:10;660.17;;;47.10;;
15958;SDS011;8078;47.822;9.402;2022-12-18T16:39:38;564.97;;;39.63;;
15958;SDS011;8078;47.822;9.402;2022-12-18T16:42:11;348.10;;;30.30;;
15958;SDS011;8078;47.822;9.402;2022-12-18T16:44:41;383.73;;;32.27;;